sensor_id;sensor_type;location;lat;lon;timestamp;P1;durP1;ratioP1;P2;durP2;ratioP2
45318;SDS011;31057;48.498;32.260;2023-11-21T00:03:59;31.73;;;18.25;;
45318;SDS011;31057;48.498;32.260;2023-11-21T00:06:03;29.92;;;19.90;;
45318;SDS011;31057;48.498;32.260;2023-11-21T00:08:05;28.45;;;19.10;;
45318;SDS011;31057;48.498;32.260;2023-11-21T00:10:07;31.15;;;19.90;;
45318;SDS011;31057;48.498;32.260;2023-11-21T00:12:11;29.45;;;20.30;;
45318;SDS011;31057;48.498;32.260;2023-11-21T00:14:15;33.13;;;19.85;;
45318;SDS011;31057;48.498;32.260;2023-11-21T00:20:22;33.88;;;20.70;;
45318;SDS011;31057;48.498;32.260;2023-11-21T00:24:27;35.78;;;21.60;;
45318;SDS011;31057;48.498;32.260;2023-11-21T00:26:28;36.80;;;22.67;;
45318;SDS011;31057;48.498;32.260;2023-11-21T00:28:32;39.17;;;22.85;;
45318;SDS011;31057;48.498;32.260;2023-11-21T00:30:34;40.50;;;23.75;;
45318;SDS011;31057;48.498;32.260;2023-11-21T00:32:37;38.53;;;24.05;;
45318;SDS011;31057;48.498;32.260;2023-11-21T00:34:40;40.40;;;23.63;;
45318;SDS011;31057;48.498;32.260;2023-11-21T00:38:43;42.65;;;25.40;;
45318;SDS011;31057;48.498;32.260;2023-11-21T00:42:48;45.20;;;28.25;;
45318;SDS011;31057;48.498;32.260;2023-11-21T00:44:49;46.97;;;27.20;;
45318;SDS011;31057;48.498;32.260;2023-11-21T00:48:53;41.53;;;24.38;;
45318;SDS011;31057;48.498;32.260;2023-11-21T00:50:56;41.10;;;25.30;;
45318;SDS011;31057;48.498;32.260;2023-11-21T00:54:59;42.60;;;24.77;;
45318;SDS011;31057;48.498;32.260;2023-11-21T00:59:04;35.10;;;22.75;;
45318;SDS011;31057;48.498;32.260;2023-11-21T01:03:08;35.17;;;22.17;;
45318;SDS011;31057;48.498;32.260;2023-11-21T01:05:10;36.97;;;22.25;;
45318;SDS011;31057;48.498;32.260;2023-11-21T01:09:15;29.85;;;19.13;;
45318;SDS011;31057;48.498;32.260;2023-11-21T01:11:19;33.50;;;19.83;;
45318;SDS011;31057;48.498;32.260;2023-11-21T01:15:23;31.98;;;20.70;;
45318;SDS011;31057;48.498;32.260;2023-11-21T01:17:27;35.53;;;21.23;;
45318;SDS011;31057;48.498;32.260;2023-11-21T01:19:29;42.38;;;25.45;;
45318;SDS011;31057;48.498;32.260;2023-11-21T01:21:31;41.63;;;27.08;;
45318;SDS011;31057;48.498;32.260;2023-11-21T01:25:35;46.15;;;26.48;;
45318;SDS011;31057;48.498;32.260;2023-11-21T01:29:39;48.60;;;30.08;;
45318;SDS011;31057;48.498;32.260;2023-11-21T01:33:43;49.03;;;27.35;;
45318;SDS011;31057;48.498;32.260;2023-11-21T01:35:45;51.70;;;31.08;;
45318;SDS011;31057;48.498;32.260;2023-11-21T01:37:48;46.42;;;27.00;;
45318;SDS011;31057;48.498;32.260;2023-11-21T01:39:50;33.80;;;24.08;;
45318;SDS011;31057;48.498;32.260;2023-11-21T01:43:54;39.35;;;23.80;;
45318;SDS011;31057;48.498;32.260;2023-11-21T01:45:57;42.05;;;27.13;;
45318;SDS011;31057;48.498;32.260;2023-11-21T01:48:00;40.92;;;26.67;;
45318;SDS011;31057;48.498;32.260;2023-11-21T01:50:03;41.50;;;26.48;;
45318;SDS011;31057;48.498;32.260;2023-11-21T01:52:07;45.92;;;23.92;;
45318;SDS011;31057;48.498;32.260;2023-11-21T01:56:18;43.13;;;24.70;;
45318;SDS011;31057;48.498;32.260;2023-11-21T01:58:20;39.78;;;24.15;;
45318;SDS011;31057;48.498;32.260;2023-11-21T02:00:23;42.35;;;24.42;;
45318;SDS011;31057;48.498;32.260;2023-11-21T02:02:25;38.97;;;24.55;;
45318;SDS011;31057;48.498;32.260;2023-11-21T02:06:29;41.58;;;23.95;;
45318;SDS011;31057;48.498;32.260;2023-11-21T02:08:32;43.53;;;24.33;;
45318;SDS011;31057;48.498;32.260;2023-11-21T02:12:41;36.00;;;20.95;;
45318;SDS011;31057;48.498;32.260;2023-11-21T02:14:43;34.60;;;22.25;;
45318;SDS011;31057;48.498;32.260;2023-11-21T02:16:46;40.92;;;25.90;;
45318;SDS011;31057;48.498;32.260;2023-11-21T02:18:51;42.55;;;25.27;;
45318;SDS011;31057;48.498;32.260;2023-11-21T02:20:53;53.38;;;29.58;;
45318;SDS011;31057;48.498;32.260;2023-11-21T02:22:56;50.15;;;30.08;;
45318;SDS011;31057;48.498;32.260;2023-11-21T02:25:00;51.05;;;29.98;;
45318;SDS011;31057;48.498;32.260;2023-11-21T02:29:04;47.20;;;27.45;;
45318;SDS011;31057;48.498;32.260;2023-11-21T02:33:09;49.63;;;29.20;;
45318;SDS011;31057;48.498;32.260;2023-11-21T02:37:13;41.38;;;27.85;;
45318;SDS011;31057;48.498;32.260;2023-11-21T02:43:19;61.20;;;28.90;;
45318;SDS011;31057;48.498;32.260;2023-11-21T02:47:23;62.30;;;34.88;;
45318;SDS011;31057;48.498;32.260;2023-11-21T02:49:26;57.20;;;32.65;;
45318;SDS011;31057;48.498;32.260;2023-11-21T02:51:30;61.45;;;36.08;;
45318;SDS011;31057;48.498;32.260;2023-11-21T02:53:31;65.18;;;37.78;;
45318;SDS011;31057;48.498;32.260;2023-11-21T02:59:38;70.68;;;45.55;;
45318;SDS011;31057;48.498;32.260;2023-11-21T03:03:42;78.57;;;47.92;;
45318;SDS011;31057;48.498;32.260;2023-11-21T03:05:44;80.93;;;47.97;;
45318;SDS011;31057;48.498;32.260;2023-11-21T03:09:48;102.15;;;57.60;;
45318;SDS011;31057;48.498;32.260;2023-11-21T03:13:51;107.18;;;61.60;;
45318;SDS011;31057;48.498;32.260;2023-11-21T03:17:55;83.15;;;50.13;;
45318;SDS011;31057;48.498;32.260;2023-11-21T03:19:58;71.70;;;41.28;;
45318;SDS011;31057;48.498;32.260;2023-11-21T03:22:01;69.78;;;42.03;;
45318;SDS011;31057;48.498;32.260;2023-11-21T03:26:05;56.70;;;32.08;;
45318;SDS011;31057;48.498;32.260;2023-11-21T03:28:09;53.95;;;33.28;;
45318;SDS011;31057;48.498;32.260;2023-11-21T03:32:13;52.28;;;29.20;;
45318;SDS011;31057;48.498;32.260;2023-11-21T03:36:21;47.28;;;28.30;;
45318;SDS011;31057;48.498;32.260;2023-11-21T03:40:25;64.10;;;33.05;;
45318;SDS011;31057;48.498;32.260;2023-11-21T03:44:28;61.10;;;33.38;;
45318;SDS011;31057;48.498;32.260;2023-11-21T03:48:32;55.13;;;34.05;;
45318;SDS011;31057;48.498;32.260;2023-11-21T03:50:34;53.17;;;29.23;;
45318;SDS011;31057;48.498;32.260;2023-11-21T03:52:37;44.88;;;28.50;;
45318;SDS011;31057;48.498;32.260;2023-11-21T03:54:41;53.63;;;30.90;;
45318;SDS011;31057;48.498;32.260;2023-11-21T03:56:44;52.20;;;31.70;;
45318;SDS011;31057;48.498;32.260;2023-11-21T04:00:48;49.35;;;29.25;;
45318;SDS011;31057;48.498;32.260;2023-11-21T04:02:51;48.15;;;28.90;;
45318;SDS011;31057;48.498;32.260;2023-11-21T04:04:53;51.08;;;29.05;;
45318;SDS011;31057;48.498;32.260;2023-11-21T04:06:55;47.20;;;29.33;;
45318;SDS011;31057;48.498;32.260;2023-11-21T04:08:57;49.63;;;27.80;;
45318;SDS011;31057;48.498;32.260;2023-11-21T04:10:59;47.55;;;28.98;;
45318;SDS011;31057;48.498;32.260;2023-11-21T04:13:02;44.88;;;27.98;;
45318;SDS011;31057;48.498;32.260;2023-11-21T04:17:06;39.25;;;24.73;;
45318;SDS011;31057;48.498;32.260;2023-11-21T04:19:08;43.85;;;25.30;;
45318;SDS011;31057;48.498;32.260;2023-11-21T04:21:11;47.97;;;27.95;;
45318;SDS011;31057;48.498;32.260;2023-11-21T04:25:16;39.90;;;24.50;;
45318;SDS011;31057;48.498;32.260;2023-11-21T04:27:18;43.40;;;24.98;;
45318;SDS011;31057;48.498;32.260;2023-11-21T04:31:22;47.65;;;28.15;;
45318;SDS011;31057;48.498;32.260;2023-11-21T04:33:24;48.88;;;30.45;;
45318;SDS011;31057;48.498;32.260;2023-11-21T04:35:27;53.50;;;29.45;;
45318;SDS011;31057;48.498;32.260;2023-11-21T04:39:31;59.65;;;34.55;;
45318;SDS011;31057;48.498;32.260;2023-11-21T04:41:33;50.35;;;31.58;;
45318;SDS011;31057;48.498;32.260;2023-11-21T04:45:36;61.13;;;35.30;;
45318;SDS011;31057;48.498;32.260;2023-11-21T04:49:43;58.95;;;34.70;;
45318;SDS011;31057;48.498;32.260;2023-11-21T04:51:48;60.55;;;35.75;;
45318;SDS011;31057;48.498;32.260;2023-11-21T04:55:52;61.08;;;35.22;;
45318;SDS011;31057;48.498;32.260;2023-11-21T04:59:56;58.78;;;32.45;;
45318;SDS011;31057;48.498;32.260;2023-11-21T05:04:04;60.00;;;35.20;;
45318;SDS011;31057;48.498;32.260;2023-11-21T05:06:10;55.28;;;32.60;;
45318;SDS011;31057;48.498;32.260;2023-11-21T05:08:12;53.05;;;32.20;;
45318;SDS011;31057;48.498;32.260;2023-11-21T05:10:14;50.40;;;30.77;;
45318;SDS011;31057;48.498;32.260;2023-11-21T05:12:16;51.95;;;29.02;;
45318;SDS011;31057;48.498;32.260;2023-11-21T05:14:18;46.30;;;28.25;;
45318;SDS011;31057;48.498;32.260;2023-11-21T05:18:23;49.92;;;30.00;;
45318;SDS011;31057;48.498;32.260;2023-11-21T05:20:28;49.05;;;27.70;;
45318;SDS011;31057;48.498;32.260;2023-11-21T05:24:32;39.65;;;24.67;;
45318;SDS011;31057;48.498;32.260;2023-11-21T05:28:36;46.33;;;25.52;;
45318;SDS011;31057;48.498;32.260;2023-11-21T05:30:38;46.55;;;27.15;;
45318;SDS011;31057;48.498;32.260;2023-11-21T05:32:40;49.65;;;26.83;;
45318;SDS011;31057;48.498;32.260;2023-11-21T05:34:48;46.13;;;26.95;;
45318;SDS011;31057;48.498;32.260;2023-11-21T05:36:50;44.03;;;26.58;;
45318;SDS011;31057;48.498;32.260;2023-11-21T05:40:54;40.58;;;26.00;;
45318;SDS011;31057;48.498;32.260;2023-11-21T05:44:58;48.15;;;27.13;;
45318;SDS011;31057;48.498;32.260;2023-11-21T05:47:13;44.53;;;26.98;;
45318;SDS011;31057;48.498;32.260;2023-11-21T05:49:16;45.28;;;28.42;;
45318;SDS011;31057;48.498;32.260;2023-11-21T05:53:21;49.38;;;28.08;;
45318;SDS011;31057;48.498;32.260;2023-11-21T05:55:23;50.25;;;29.45;;
45318;SDS011;31057;48.498;32.260;2023-11-21T05:57:27;53.55;;;31.33;;
45318;SDS011;31057;48.498;32.260;2023-11-21T06:01:31;52.65;;;31.02;;
45318;SDS011;31057;48.498;32.260;2023-11-21T06:05:35;47.88;;;29.15;;
45318;SDS011;31057;48.498;32.260;2023-11-21T06:09:39;53.10;;;30.70;;
45318;SDS011;31057;48.498;32.260;2023-11-21T06:11:41;61.10;;;37.40;;
45318;SDS011;31057;48.498;32.260;2023-11-21T06:13:43;58.25;;;31.92;;
45318;SDS011;31057;48.498;32.260;2023-11-21T06:15:45;59.67;;;35.50;;
45318;SDS011;31057;48.498;32.260;2023-11-21T06:19:56;64.30;;;37.97;;
45318;SDS011;31057;48.498;32.260;2023-11-21T06:21:58;65.03;;;36.05;;
45318;SDS011;31057;48.498;32.260;2023-11-21T06:24:00;64.43;;;36.58;;
45318;SDS011;31057;48.498;32.260;2023-11-21T06:28:06;65.88;;;36.33;;
45318;SDS011;31057;48.498;32.260;2023-11-21T06:32:11;52.15;;;28.52;;
45318;SDS011;31057;48.498;32.260;2023-11-21T06:34:14;55.30;;;31.67;;
45318;SDS011;31057;48.498;32.260;2023-11-21T06:36:16;53.42;;;32.67;;
45318;SDS011;31057;48.498;32.260;2023-11-21T06:38:18;63.88;;;34.95;;
45318;SDS011;31057;48.498;32.260;2023-11-21T06:40:21;62.30;;;36.33;;
45318;SDS011;31057;48.498;32.260;2023-11-21T06:44:28;52.08;;;34.65;;
45318;SDS011;31057;48.498;32.260;2023-11-21T06:46:29;55.42;;;37.28;;
45318;SDS011;31057;48.498;32.260;2023-11-21T06:50:33;55.40;;;34.80;;
45318;SDS011;31057;48.498;32.260;2023-11-21T06:52:35;58.38;;;37.22;;
45318;SDS011;31057;48.498;32.260;2023-11-21T06:56:39;55.85;;;31.40;;
45318;SDS011;31057;48.498;32.260;2023-11-21T06:58:42;52.08;;;32.22;;
45318;SDS011;31057;48.498;32.260;2023-11-21T07:00:47;65.15;;;34.47;;
45318;SDS011;31057;48.498;32.260;2023-11-21T07:02:54;61.25;;;35.65;;
45318;SDS011;31057;48.498;32.260;2023-11-21T07:04:56;65.88;;;40.38;;
45318;SDS011;31057;48.498;32.260;2023-11-21T07:06:59;62.97;;;35.45;;
45318;SDS011;31057;48.498;32.260;2023-11-21T07:09:01;68.60;;;38.53;;
45318;SDS011;31057;48.498;32.260;2023-11-21T07:11:04;59.85;;;35.13;;
45318;SDS011;31057;48.498;32.260;2023-11-21T07:15:09;75.60;;;43.05;;
45318;SDS011;31057;48.498;32.260;2023-11-21T07:19:13;73.68;;;38.42;;
45318;SDS011;31057;48.498;32.260;2023-11-21T07:23:17;65.95;;;37.35;;
45318;SDS011;31057;48.498;32.260;2023-11-21T07:27:21;55.35;;;33.40;;
45318;SDS011;31057;48.498;32.260;2023-11-21T07:29:24;57.08;;;33.65;;
45318;SDS011;31057;48.498;32.260;2023-11-21T07:31:31;66.53;;;40.63;;
45318;SDS011;31057;48.498;32.260;2023-11-21T07:33:37;63.03;;;38.17;;
45318;SDS011;31057;48.498;32.260;2023-11-21T07:35:38;56.13;;;34.17;;
45318;SDS011;31057;48.498;32.260;2023-11-21T07:39:42;55.65;;;33.10;;
45318;SDS011;31057;48.498;32.260;2023-11-21T07:41:45;41.67;;;27.33;;
45318;SDS011;31057;48.498;32.260;2023-11-21T07:43:50;38.03;;;25.08;;
45318;SDS011;31057;48.498;32.260;2023-11-21T07:45:52;32.53;;;21.40;;
45318;SDS011;31057;48.498;32.260;2023-11-21T07:47:54;37.85;;;22.42;;
45318;SDS011;31057;48.498;32.260;2023-11-21T07:49:57;42.85;;;27.42;;
45318;SDS011;31057;48.498;32.260;2023-11-21T07:51:59;48.92;;;27.95;;
45318;SDS011;31057;48.498;32.260;2023-11-21T07:56:04;31.08;;;19.75;;
45318;SDS011;31057;48.498;32.260;2023-11-21T07:58:09;40.45;;;21.30;;
45318;SDS011;31057;48.498;32.260;2023-11-21T08:00:11;27.38;;;17.35;;
45318;SDS011;31057;48.498;32.260;2023-11-21T08:02:14;25.73;;;15.65;;
45318;SDS011;31057;48.498;32.260;2023-11-21T08:04:17;26.70;;;15.63;;
45318;SDS011;31057;48.498;32.260;2023-11-21T08:06:20;24.23;;;14.38;;
45318;SDS011;31057;48.498;32.260;2023-11-21T08:08:22;25.45;;;16.15;;
45318;SDS011;31057;48.498;32.260;2023-11-21T08:10:25;23.88;;;14.88;;
45318;SDS011;31057;48.498;32.260;2023-11-21T08:12:27;25.83;;;15.90;;
45318;SDS011;31057;48.498;32.260;2023-11-21T08:14:29;26.00;;;16.55;;
45318;SDS011;31057;48.498;32.260;2023-11-21T08:16:31;25.48;;;16.92;;
45318;SDS011;31057;48.498;32.260;2023-11-21T08:18:33;28.75;;;16.60;;
45318;SDS011;31057;48.498;32.260;2023-11-21T08:20:36;22.60;;;14.90;;
45318;SDS011;31057;48.498;32.260;2023-11-21T08:22:41;26.70;;;13.70;;
45318;SDS011;31057;48.498;32.260;2023-11-21T08:24:44;24.20;;;14.55;;
45318;SDS011;31057;48.498;32.260;2023-11-21T08:26:48;25.15;;;14.55;;
45318;SDS011;31057;48.498;32.260;2023-11-21T08:28:50;21.65;;;14.73;;
45318;SDS011;31057;48.498;32.260;2023-11-21T08:30:57;24.08;;;14.68;;
45318;SDS011;31057;48.498;32.260;2023-11-21T08:33:00;20.75;;;14.63;;
45318;SDS011;31057;48.498;32.260;2023-11-21T08:37:04;29.17;;;17.27;;
45318;SDS011;31057;48.498;32.260;2023-11-21T08:39:07;26.40;;;15.82;;
45318;SDS011;31057;48.498;32.260;2023-11-21T08:43:10;23.83;;;14.10;;
45318;SDS011;31057;48.498;32.260;2023-11-21T08:45:14;22.80;;;15.65;;
45318;SDS011;31057;48.498;32.260;2023-11-21T08:47:16;26.52;;;16.20;;
45318;SDS011;31057;48.498;32.260;2023-11-21T08:49:18;25.02;;;15.23;;
45318;SDS011;31057;48.498;32.260;2023-11-21T08:51:20;23.83;;;15.02;;
45318;SDS011;31057;48.498;32.260;2023-11-21T08:53:22;26.40;;;17.83;;
45318;SDS011;31057;48.498;32.260;2023-11-21T08:57:26;23.38;;;15.50;;
45318;SDS011;31057;48.498;32.260;2023-11-21T08:59:28;22.92;;;14.05;;
45318;SDS011;31057;48.498;32.260;2023-11-21T09:01:30;20.98;;;14.27;;
45318;SDS011;31057;48.498;32.260;2023-11-21T09:03:33;25.30;;;15.82;;
45318;SDS011;31057;48.498;32.260;2023-11-21T09:05:37;23.42;;;15.52;;
45318;SDS011;31057;48.498;32.260;2023-11-21T09:07:40;25.60;;;15.50;;
45318;SDS011;31057;48.498;32.260;2023-11-21T09:09:43;23.63;;;15.57;;
45318;SDS011;31057;48.498;32.260;2023-11-21T09:11:45;25.45;;;17.58;;
45318;SDS011;31057;48.498;32.260;2023-11-21T09:13:47;21.05;;;14.80;;
45318;SDS011;31057;48.498;32.260;2023-11-21T09:15:49;23.38;;;14.65;;
45318;SDS011;31057;48.498;32.260;2023-11-21T09:19:53;21.98;;;14.57;;
45318;SDS011;31057;48.498;32.260;2023-11-21T09:21:55;22.13;;;15.55;;
45318;SDS011;31057;48.498;32.260;2023-11-21T09:23:58;23.70;;;14.75;;
45318;SDS011;31057;48.498;32.260;2023-11-21T09:26:00;27.45;;;17.50;;
45318;SDS011;31057;48.498;32.260;2023-11-21T09:28:03;28.17;;;16.48;;
45318;SDS011;31057;48.498;32.260;2023-11-21T09:30:09;24.77;;;16.05;;
45318;SDS011;31057;48.498;32.260;2023-11-21T09:32:11;24.80;;;15.27;;
45318;SDS011;31057;48.498;32.260;2023-11-21T09:34:15;32.78;;;20.00;;
45318;SDS011;31057;48.498;32.260;2023-11-21T09:36:18;23.42;;;15.88;;
45318;SDS011;31057;48.498;32.260;2023-11-21T09:40:22;27.33;;;16.40;;
45318;SDS011;31057;48.498;32.260;2023-11-21T09:47:16;24.48;;;15.80;;
45318;SDS011;31057;48.498;32.260;2023-11-21T09:49:18;27.58;;;16.48;;
45318;SDS011;31057;48.498;32.260;2023-11-21T09:51:27;28.05;;;17.55;;
45318;SDS011;31057;48.498;32.260;2023-11-21T09:53:31;28.23;;;17.67;;
45318;SDS011;31057;48.498;32.260;2023-11-21T09:55:36;24.95;;;16.58;;
45318;SDS011;31057;48.498;32.260;2023-11-21T09:57:40;26.42;;;17.80;;
45318;SDS011;31057;48.498;32.260;2023-11-21T09:59:42;29.38;;;18.15;;
45318;SDS011;31057;48.498;32.260;2023-11-21T10:01:46;27.27;;;16.55;;
45318;SDS011;31057;48.498;32.260;2023-11-21T10:03:48;26.13;;;16.42;;
45318;SDS011;31057;48.498;32.260;2023-11-21T10:05:51;22.88;;;15.27;;
45318;SDS011;31057;48.498;32.260;2023-11-21T10:07:57;26.17;;;14.98;;
45318;SDS011;31057;48.498;32.260;2023-11-21T10:10:00;25.85;;;16.30;;
45318;SDS011;31057;48.498;32.260;2023-11-21T10:12:03;24.90;;;16.48;;
45318;SDS011;31057;48.498;32.260;2023-11-21T10:14:10;30.55;;;18.75;;
45318;SDS011;31057;48.498;32.260;2023-11-21T10:16:16;31.30;;;20.38;;
45318;SDS011;31057;48.498;32.260;2023-11-21T10:18:24;32.72;;;20.05;;
45318;SDS011;31057;48.498;32.260;2023-11-21T10:20:27;30.23;;;20.90;;
45318;SDS011;31057;48.498;32.260;2023-11-21T10:22:30;31.45;;;19.23;;
45318;SDS011;31057;48.498;32.260;2023-11-21T10:26:49;28.02;;;17.63;;
45318;SDS011;31057;48.498;32.260;2023-11-21T10:28:55;27.05;;;17.10;;
45318;SDS011;31057;48.498;32.260;2023-11-21T10:30:59;26.58;;;18.48;;
45318;SDS011;31057;48.498;32.260;2023-11-21T10:33:01;25.92;;;17.27;;
45318;SDS011;31057;48.498;32.260;2023-11-21T10:35:04;26.05;;;17.00;;
45318;SDS011;31057;48.498;32.260;2023-11-21T10:37:12;26.30;;;16.98;;
45318;SDS011;31057;48.498;32.260;2023-11-21T10:39:17;26.60;;;17.60;;
45318;SDS011;31057;48.498;32.260;2023-11-21T10:41:20;25.90;;;16.40;;
45318;SDS011;31057;48.498;32.260;2023-11-21T10:45:28;26.50;;;15.32;;
45318;SDS011;31057;48.498;32.260;2023-11-21T10:47:32;24.40;;;14.40;;
45318;SDS011;31057;48.498;32.260;2023-11-21T10:51:38;31.52;;;19.05;;
45318;SDS011;31057;48.498;32.260;2023-11-21T10:53:45;27.50;;;16.98;;
45318;SDS011;31057;48.498;32.260;2023-11-21T10:55:49;30.27;;;17.23;;
45318;SDS011;31057;48.498;32.260;2023-11-21T10:59:54;33.13;;;19.85;;
45318;SDS011;31057;48.498;32.260;2023-11-21T11:03:59;30.13;;;18.15;;
45318;SDS011;31057;48.498;32.260;2023-11-21T11:06:04;28.55;;;17.35;;
45318;SDS011;31057;48.498;32.260;2023-11-21T11:08:12;31.02;;;18.67;;
45318;SDS011;31057;48.498;32.260;2023-11-21T11:10:23;28.35;;;18.50;;
45318;SDS011;31057;48.498;32.260;2023-11-21T11:12:27;24.27;;;15.95;;
45318;SDS011;31057;48.498;32.260;2023-11-21T11:14:30;20.73;;;14.15;;
45318;SDS011;31057;48.498;32.260;2023-11-21T11:16:33;21.88;;;14.90;;
45318;SDS011;31057;48.498;32.260;2023-11-21T11:18:36;20.42;;;13.43;;
45318;SDS011;31057;48.498;32.260;2023-11-21T11:20:38;17.25;;;13.25;;
45318;SDS011;31057;48.498;32.260;2023-11-21T11:25:08;20.92;;;13.45;;
45318;SDS011;31057;48.498;32.260;2023-11-21T11:27:37;21.33;;;13.40;;
45318;SDS011;31057;48.498;32.260;2023-11-21T11:30:34;22.95;;;14.27;;
45318;SDS011;31057;48.498;32.260;2023-11-21T11:35:19;18.35;;;11.57;;
45318;SDS011;31057;48.498;32.260;2023-11-21T11:37:39;19.67;;;13.45;;
45318;SDS011;31057;48.498;32.260;2023-11-21T11:41:45;23.90;;;11.27;;
45318;SDS011;31057;48.498;32.260;2023-11-21T11:43:48;16.35;;;11.30;;
45318;SDS011;31057;48.498;32.260;2023-11-21T11:45:50;18.55;;;11.88;;
45318;SDS011;31057;48.498;32.260;2023-11-21T11:47:57;23.02;;;11.25;;
45318;SDS011;31057;48.498;32.260;2023-11-21T11:54:42;16.17;;;10.27;;
45318;SDS011;31057;48.498;32.260;2023-11-21T11:56:45;14.18;;;10.57;;
45318;SDS011;31057;48.498;32.260;2023-11-21T11:58:49;19.58;;;12.40;;
45318;SDS011;31057;48.498;32.260;2023-11-21T12:00:52;17.40;;;10.63;;
45318;SDS011;31057;48.498;32.260;2023-11-21T12:02:57;19.13;;;11.77;;
45318;SDS011;31057;48.498;32.260;2023-11-21T12:05:01;17.77;;;12.10;;
45318;SDS011;31057;48.498;32.260;2023-11-21T12:07:08;19.77;;;12.18;;
45318;SDS011;31057;48.498;32.260;2023-11-21T12:09:19;27.52;;;14.80;;
45318;SDS011;31057;48.498;32.260;2023-11-21T12:11:28;20.55;;;13.60;;
45318;SDS011;31057;48.498;32.260;2023-11-21T12:13:36;21.70;;;13.95;;
45318;SDS011;31057;48.498;32.260;2023-11-21T12:15:39;25.25;;;15.48;;
45318;SDS011;31057;48.498;32.260;2023-11-21T12:17:44;22.73;;;14.45;;
45318;SDS011;31057;48.498;32.260;2023-11-21T12:19:47;26.38;;;15.68;;
45318;SDS011;31057;48.498;32.260;2023-11-21T12:21:49;25.60;;;15.15;;
45318;SDS011;31057;48.498;32.260;2023-11-21T12:23:51;22.20;;;13.55;;
45318;SDS011;31057;48.498;32.260;2023-11-21T12:25:53;20.17;;;13.82;;
45318;SDS011;31057;48.498;32.260;2023-11-21T12:29:58;23.73;;;14.73;;
45318;SDS011;31057;48.498;32.260;2023-11-21T12:34:02;22.23;;;12.20;;
45318;SDS011;31057;48.498;32.260;2023-11-21T12:36:05;20.58;;;12.52;;
45318;SDS011;31057;48.498;32.260;2023-11-21T12:38:11;21.00;;;13.40;;
45318;SDS011;31057;48.498;32.260;2023-11-21T12:40:14;20.25;;;12.82;;
45318;SDS011;31057;48.498;32.260;2023-11-21T12:42:18;26.33;;;15.30;;
45318;SDS011;31057;48.498;32.260;2023-11-21T12:44:20;25.17;;;14.77;;
45318;SDS011;31057;48.498;32.260;2023-11-21T12:46:25;23.63;;;16.13;;
45318;SDS011;31057;48.498;32.260;2023-11-21T12:48:31;21.67;;;14.18;;
45318;SDS011;31057;48.498;32.260;2023-11-21T12:52:37;25.95;;;15.65;;
45318;SDS011;31057;48.498;32.260;2023-11-21T12:54:40;24.00;;;14.63;;
45318;SDS011;31057;48.498;32.260;2023-11-21T12:56:44;22.58;;;14.18;;
45318;SDS011;31057;48.498;32.260;2023-11-21T12:58:49;21.33;;;14.73;;
45318;SDS011;31057;48.498;32.260;2023-11-21T13:00:53;21.92;;;13.65;;
45318;SDS011;31057;48.498;32.260;2023-11-21T13:02:57;23.33;;;13.82;;
45318;SDS011;31057;48.498;32.260;2023-11-21T13:05:00;23.05;;;14.65;;
45318;SDS011;31057;48.498;32.260;2023-11-21T13:07:07;22.48;;;14.52;;
45318;SDS011;31057;48.498;32.260;2023-11-21T13:09:15;19.60;;;14.07;;
45318;SDS011;31057;48.498;32.260;2023-11-21T13:11:23;20.70;;;14.35;;
45318;SDS011;31057;48.498;32.260;2023-11-21T13:13:30;23.05;;;15.90;;
45318;SDS011;31057;48.498;32.260;2023-11-21T13:15:33;29.20;;;16.58;;
45318;SDS011;31057;48.498;32.260;2023-11-21T13:17:36;21.80;;;13.90;;
45318;SDS011;31057;48.498;32.260;2023-11-21T13:19:38;21.77;;;14.63;;
45318;SDS011;31057;48.498;32.260;2023-11-21T13:21:40;28.35;;;16.55;;
45318;SDS011;31057;48.498;32.260;2023-11-21T13:23:42;24.73;;;16.48;;
45318;SDS011;31057;48.498;32.260;2023-11-21T13:25:47;22.85;;;14.93;;
45318;SDS011;31057;48.498;32.260;2023-11-21T13:28:02;25.42;;;16.33;;
45318;SDS011;31057;48.498;32.260;2023-11-21T13:32:09;36.08;;;19.08;;
45318;SDS011;31057;48.498;32.260;2023-11-21T13:34:13;24.65;;;14.43;;
45318;SDS011;31057;48.498;32.260;2023-11-21T13:36:22;24.35;;;15.75;;
45318;SDS011;31057;48.498;32.260;2023-11-21T13:38:25;24.27;;;16.15;;
45318;SDS011;31057;48.498;32.260;2023-11-21T13:40:31;29.85;;;16.27;;
45318;SDS011;31057;48.498;32.260;2023-11-21T13:42:35;21.95;;;14.02;;
45318;SDS011;31057;48.498;32.260;2023-11-21T13:44:40;25.75;;;15.38;;
45318;SDS011;31057;48.498;32.260;2023-11-21T13:46:46;22.25;;;14.50;;
45318;SDS011;31057;48.498;32.260;2023-11-21T13:48:48;24.02;;;16.10;;
45318;SDS011;31057;48.498;32.260;2023-11-21T13:51:00;24.38;;;14.75;;
45318;SDS011;31057;48.498;32.260;2023-11-21T13:53:11;28.17;;;17.15;;
45318;SDS011;31057;48.498;32.260;2023-11-21T13:55:24;26.67;;;14.05;;
45318;SDS011;31057;48.498;32.260;2023-11-21T13:57:26;25.35;;;14.90;;
45318;SDS011;31057;48.498;32.260;2023-11-21T13:59:30;27.35;;;16.70;;
45318;SDS011;31057;48.498;32.260;2023-11-21T14:01:33;24.90;;;15.55;;
45318;SDS011;31057;48.498;32.260;2023-11-21T14:03:38;24.98;;;15.63;;
45318;SDS011;31057;48.498;32.260;2023-11-21T14:05:44;25.92;;;15.90;;
45318;SDS011;31057;48.498;32.260;2023-11-21T14:07:49;23.67;;;15.85;;
45318;SDS011;31057;48.498;32.260;2023-11-21T14:11:55;26.75;;;15.95;;
45318;SDS011;31057;48.498;32.260;2023-11-21T14:13:58;22.85;;;16.20;;
45318;SDS011;31057;48.498;32.260;2023-11-21T14:16:00;28.13;;;17.90;;
45318;SDS011;31057;48.498;32.260;2023-11-21T14:18:03;34.13;;;19.33;;
45318;SDS011;31057;48.498;32.260;2023-11-21T14:20:09;30.85;;;19.08;;
45318;SDS011;31057;48.498;32.260;2023-11-21T14:22:18;30.63;;;19.80;;
45318;SDS011;31057;48.498;32.260;2023-11-21T14:24:20;33.25;;;23.48;;
45318;SDS011;31057;48.498;32.260;2023-11-21T14:26:24;31.05;;;19.52;;
45318;SDS011;31057;48.498;32.260;2023-11-21T14:30:28;24.92;;;17.38;;
45318;SDS011;31057;48.498;32.260;2023-11-21T14:32:33;23.60;;;14.73;;
45318;SDS011;31057;48.498;32.260;2023-11-21T14:34:36;24.73;;;15.35;;
45318;SDS011;31057;48.498;32.260;2023-11-21T14:36:38;30.05;;;17.15;;
45318;SDS011;31057;48.498;32.260;2023-11-21T14:38:40;28.92;;;19.02;;
45318;SDS011;31057;48.498;32.260;2023-11-21T14:40:44;28.48;;;19.13;;
45318;SDS011;31057;48.498;32.260;2023-11-21T14:42:46;30.40;;;19.40;;
45318;SDS011;31057;48.498;32.260;2023-11-21T14:44:49;27.10;;;17.73;;
45318;SDS011;31057;48.498;32.260;2023-11-21T14:46:52;26.67;;;16.73;;
45318;SDS011;31057;48.498;32.260;2023-11-21T14:48:59;27.42;;;17.00;;
45318;SDS011;31057;48.498;32.260;2023-11-21T14:51:09;28.10;;;17.30;;
45318;SDS011;31057;48.498;32.260;2023-11-21T14:53:14;31.60;;;17.85;;
45318;SDS011;31057;48.498;32.260;2023-11-21T14:55:17;37.05;;;22.67;;
45318;SDS011;31057;48.498;32.260;2023-11-21T14:57:26;34.10;;;21.90;;
45318;SDS011;31057;48.498;32.260;2023-11-21T14:59:28;43.45;;;24.60;;
45318;SDS011;31057;48.498;32.260;2023-11-21T15:01:33;37.20;;;22.23;;